Darya Jyoti — VRGM9 — position and weather

sailwx.info

Track history (hours):
 
Tides and Currents Weather Stations Pressure Air Temp Water Temp Dewpoint Dewpoint Depression Visibility Wind Speed Wind Dir Waves Ship Positions

Darya Jyoti

Last reported at 2017-Feb-17 17:33 UTC. Time now 2017-Feb-23 16:20 UTC.
Position N 01°15' E 104°01'.

Length 229 m; draft 13.8 m.

Type: Cargo ship. MMSI: 477742700.

Date/timePositionNaut miles runAvg speedWind from/ knotsBaromVisibWave heightAir tempDewpointWater temp
2017-Feb-17 17:33N 01°15' E 104°01'4 3.7
2017-Feb-17 16:31N 01°17' E 103°58'0 0.0
2017-Feb-17 15:31N 01°17' E 103°58'0 0.0
2017-Feb-17 14:31N 01°17' E 103°58'0 0.0
2017-Feb-17 13:31N 01°17' E 103°58'0 0.0
2017-Feb-17 12:31N 01°17' E 103°58'0 0.0
2017-Feb-17 11:31N 01°17' E 103°58'0 0.0
2017-Feb-17 10:31N 01°17' E 103°58'0 0.0
2017-Feb-17 09:31N 01°17' E 103°58'0 0.0
2017-Feb-17 08:25N 01°17' E 103°58'0 0.0
2017-Feb-17 07:31N 01°17' E 103°58'0 0.0
2017-Feb-17 06:28N 01°17' E 103°58'0 0.0
2017-Feb-17 05:31N 01°17' E 103°58'0 0.0
2017-Feb-17 04:28N 01°17' E 103°58'0 0.0
2017-Feb-17 03:31N 01°17' E 103°58'0 0.0
2017-Feb-17 02:31N 01°17' E 103°58'0 0.0
2017-Feb-17 01:31N 01°17' E 103°58'0 0.0
2017-Feb-17 00:28N 01°17' E 103°58'0 0.4
2017-Feb-16 23:33N 01°16' E 103°58'6 6.3
2017-Feb-16 22:33N 01°12' E 103°53'9 9.4
2017-Feb-16 21:33N 01°07' E 103°45'7 7.3
2017-Feb-16 20:33N 01°02' E 103°40'8 7.5
2017-Feb-16 19:33N 01°06' E 103°33'8 7.8
2017-Feb-16 18:33N 01°10' E 103°26'10 9.4
2017-Feb-16 17:27N 01°16' E 103°18'6111.8
2017-Feb-16 12:19N 01°48' E 102°26'  
Track history (hours):
 
Tides and Currents Weather Stations Pressure Air Temp Water Temp Dewpoint Dewpoint Depression Visibility Wind Speed Wind Dir Waves Ship Positions

Darya Jyoti

Last reported at 2017-Feb-17 17:33 UTC. Time now 2017-Feb-23 16:20 UTC.
Position N 01°15' E 104°01'.

Length 229 m; draft 13.8 m.

Type: Cargo ship. MMSI: 477742700.

Date/timePositionNaut miles runAvg speedWind from/ knotsBaromVisibWave heightAir tempDewpointWater temp
2017-Feb-17 17:33N 01°15' E 104°01'4 3.7
2017-Feb-17 16:31N 01°17' E 103°58'0 0.0
2017-Feb-17 15:31N 01°17' E 103°58'0 0.0
2017-Feb-17 14:31N 01°17' E 103°58'0 0.0
2017-Feb-17 13:31N 01°17' E 103°58'0 0.0
2017-Feb-17 12:31N 01°17' E 103°58'0 0.0
2017-Feb-17 11:31N 01°17' E 103°58'0 0.0
2017-Feb-17 10:31N 01°17' E 103°58'0 0.0
2017-Feb-17 09:31N 01°17' E 103°58'0 0.0
2017-Feb-17 08:25N 01°17' E 103°58'0 0.0
2017-Feb-17 07:31N 01°17' E 103°58'0 0.0
2017-Feb-17 06:28N 01°17' E 103°58'0 0.0
2017-Feb-17 05:31N 01°17' E 103°58'0 0.0
2017-Feb-17 04:28N 01°17' E 103°58'0 0.0
2017-Feb-17 03:31N 01°17' E 103°58'0 0.0
2017-Feb-17 02:31N 01°17' E 103°58'0 0.0
2017-Feb-17 01:31N 01°17' E 103°58'0 0.0
2017-Feb-17 00:28N 01°17' E 103°58'0 0.4
2017-Feb-16 23:33N 01°16' E 103°58'6 6.3
2017-Feb-16 22:33N 01°12' E 103°53'9 9.4
2017-Feb-16 21:33N 01°07' E 103°45'7 7.3
2017-Feb-16 20:33N 01°02' E 103°40'8 7.5
2017-Feb-16 19:33N 01°06' E 103°33'8 7.8
2017-Feb-16 18:33N 01°10' E 103°26'10 9.4
2017-Feb-16 17:27N 01°16' E 103°18'6111.8
2017-Feb-16 12:19N 01°48' E 102°26'  

Dump ship's entire track history